Time;durP1;ratioP1;P1;durP2;ratioP2;P2;SDS_P1;SDS_P2;PMS_P1;PMS_P2;Temp;Humidity;BMP_temperature;BMP_pressure;BME280_temperature;BME280_humidity;BME280_pressure;Samples;Min_cycle;Max_cycle;Signal;HPM_P1;HPM_P2
2023/06/29 06:54:45;;;;;;;16.70;7.97;;;22.30;99.90;;;;;;4969762;23;20263;-70
2023/06/29 06:57:11;;;;;;;17.75;8.27;;;22.40;99.90;;;;;;4955571;28;20224;-69
2023/06/29 06:59:38;;;;;;;14.82;8.70;;;22.50;99.90;;;;;;4955028;29;20208;-71
2023/06/29 07:02:07;;;;;;;17.95;8.80;;;22.60;99.90;;;;;;4957105;28;20246;-71
2023/06/29 07:04:34;;;;;;;18.92;9.32;;;22.80;99.90;;;;;;4957493;28;20235;-69
2023/06/29 07:07:00;;;;;;;17.42;8.70;;;22.80;99.90;;;;;;4957669;28;20212;-73
2023/06/29 07:09:27;;;;;;;15.85;8.50;;;22.80;99.90;;;;;;4957498;28;20211;-71
2023/06/29 07:11:55;;;;;;;15.05;8.27;;;22.70;99.90;;;;;;4957315;28;20228;-72
2023/06/29 07:14:22;;;;;;;18.08;8.65;;;22.70;99.90;;;;;;4957311;28;20204;-71
2023/06/29 07:16:49;;;;;;;15.32;8.77;;;22.60;99.90;;;;;;4957240;28;20235;-73
2023/06/29 07:19:17;;;;;;;16.83;8.57;;;22.50;99.90;;;;;;4957241;28;20566;-75
2023/06/29 14:07:54;;;;;;;25.20;12.90;;;26.00;99.90;;;;;;4952303;29;20228;-71
2023/06/29 14:10:20;;;;;;;24.73;12.05;;;25.80;99.90;;;;;;4954760;28;20662;-70
2023/06/29 14:12:47;;;;;;;23.10;11.63;;;25.70;99.90;;;;;;4954639;28;20231;-70
2023/06/29 14:15:14;;;;;;;23.05;11.80;;;25.50;99.90;;;;;;4954674;28;20208;-70
2023/06/29 14:17:41;;;;;;;26.00;12.65;;;25.40;99.90;;;;;;4954440;28;20224;-71
2023/06/29 14:20:08;;;;;;;23.30;11.95;;;25.20;99.90;;;;;;4955010;28;20208;-70
2023/06/29 14:22:35;;;;;;;21.30;10.80;;;25.10;99.90;;;;;;4954588;28;20670;-71
2023/06/29 14:25:04;;;;;;;20.58;11.45;;;25.10;99.90;;;;;;4954419;28;20208;-70
2023/06/29 14:27:31;;;;;;;20.42;10.75;;;25.00;99.90;;;;;;4956443;28;20219;-70
2023/06/29 14:29:58;;;;;;;22.40;10.50;;;25.00;99.90;;;;;;4953140;28;20208;-72
2023/06/29 14:32:25;;;;;;;18.60;9.85;;;24.90;99.90;;;;;;4957394;28;20234;-77
2023/06/29 14:34:52;;;;;;;19.55;11.00;;;24.90;99.90;;;;;;4957079;28;20659;-70
2023/06/29 14:37:19;;;;;;;22.30;10.55;;;24.80;99.90;;;;;;4957154;28;20319;-78
2023/06/29 14:39:46;;;;;;;21.27;9.57;;;24.80;99.90;;;;;;4957148;28;20558;-70
2023/06/29 14:42:14;;;;;;;19.83;9.98;;;24.70;99.90;;;;;;4957024;28;20308;-72
2023/06/29 14:44:42;;;;;;;21.67;10.07;;;24.70;99.90;;;;;;4956889;28;20263;-69
2023/06/29 14:47:09;;;;;;;18.42;9.38;;;24.70;99.90;;;;;;4956895;28;20212;-69
2023/06/29 14:49:36;;;;;;;18.23;9.57;;;24.70;99.90;;;;;;4957160;28;20667;-71
2023/06/29 14:52:03;;;;;;;20.80;9.88;;;24.80;99.90;;;;;;4956613;28;20239;-71
2023/06/29 14:54:30;;;;;;;17.23;9.00;;;24.80;99.90;;;;;;4956367;28;20232;-70
2023/06/29 14:56:57;;;;;;;19.77;9.80;;;25.00;99.90;;;;;;4956637;28;20214;-70
2023/06/29 14:59:26;;;;;;;20.58;9.93;;;25.00;99.90;;;;;;4955818;28;20236;-70
2023/06/29 15:01:52;;;;;;;17.10;9.15;;;25.20;99.90;;;;;;4951819;28;20208;-73
2023/06/29 15:04:19;;;;;;;17.42;9.43;;;25.40;99.90;;;;;;4958215;28;20228;-73
2023/06/29 15:06:50;;;;;;;15.32;8.52;;;25.50;99.90;;;;;;4956393;28;20375;-75
2023/06/29 15:09:17;;;;;;;19.83;9.73;;;25.50;99.90;;;;;;4955942;28;20216;-75
2023/06/29 15:11:44;;;;;;;19.30;9.13;;;25.40;99.90;;;;;;4955651;28;20208;-83
2023/06/29 15:14:11;;;;;;;18.42;9.05;;;25.20;99.90;;;;;;4955539;28;20238;-72
2023/06/29 15:16:39;;;;;;;18.77;9.55;;;25.00;99.90;;;;;;4955736;28;20243;-75
2023/06/29 15:19:07;;;;;;;18.52;9.98;;;25.00;99.90;;;;;;4955481;28;20252;-74
2023/06/29 15:21:34;;;;;;;13.80;8.05;;;24.90;99.90;;;;;;4955607;28;20563;-77
2023/06/29 15:24:01;;;;;;;17.65;7.80;;;24.90;99.90;;;;;;4955416;28;20322;-73
2023/06/29 15:26:27;;;;;;;15.93;7.45;;;24.90;99.90;;;;;;4955087;28;20216;-74
2023/06/29 15:28:54;;;;;;;10.90;6.10;;;25.00;99.90;;;;;;4955566;28;20302;-73
2023/06/29 15:31:21;;;;;;;11.63;6.28;;;25.00;99.90;;;;;;4955475;28;20674;-73
2023/06/29 15:33:49;;;;;;;13.23;6.68;;;25.00;99.90;;;;;;4955936;28;20234;-75
2023/06/29 15:36:16;;;;;;;12.82;6.75;;;25.10;99.90;;;;;;4955709;28;20298;-74
2023/06/29 15:38:43;;;;;;;13.13;6.68;;;25.10;99.90;;;;;;4954770;28;20235;-74
2023/06/29 15:41:10;;;;;;;13.63;7.10;;;25.00;99.90;;;;;;4956901;28;20308;-76
2023/06/29 15:43:37;;;;;;;14.05;6.95;;;25.00;99.90;;;;;;4956666;28;20220;-75
2023/06/29 15:46:04;;;;;;;11.40;6.60;;;24.90;99.90;;;;;;4957044;28;20300;-75
2023/06/29 15:48:31;;;;;;;13.50;6.55;;;24.80;99.90;;;;;;4956859;28;20214;-75
2023/06/29 15:51:00;;;;;;;12.25;6.35;;;24.60;99.90;;;;;;4956806;28;20204;-76
2023/06/29 15:53:27;;;;;;;10.75;5.82;;;24.50;99.90;;;;;;4956245;28;20231;-77
2023/06/29 15:55:53;;;;;;;12.95;5.55;;;24.00;99.90;;;;;;4956910;28;20298;-76
2023/06/29 15:58:20;;;;;;;9.82;5.60;;;23.90;99.90;;;;;;4956721;28;20581;-73
2023/06/29 16:00:47;;;;;;;10.90;6.40;;;23.60;99.90;;;;;;4956546;28;20212;-77
2023/06/29 16:03:14;;;;;;;10.60;5.30;;;23.40;99.90;;;;;;4956491;28;20227;-78
2023/06/29 16:05:41;;;;;;;11.00;5.50;;;23.40;99.90;;;;;;4956501;28;20212;-76
2023/06/29 16:08:09;;;;;;;10.73;5.88;;;23.40;99.90;;;;;;4956606;28;20222;-74
2023/06/29 16:10:36;;;;;;;15.10;7.50;;;23.20;99.90;;;;;;4956304;28;20283;-73
2023/06/29 16:13:02;;;;;;;15.00;7.53;;;23.20;99.90;;;;;;4955879;28;20322;-76
2023/06/29 16:15:29;;;;;;;13.60;7.22;;;23.10;99.90;;;;;;4956133;28;20204;-78
2023/06/29 16:17:56;;;;;;;15.15;8.38;;;23.00;99.90;;;;;;4956185;28;20232;-74
2023/06/29 16:20:23;;;;;;;15.18;8.18;;;22.70;99.90;;;;;;4955995;28;20204;-77
2023/06/29 16:22:49;;;;;;;14.38;8.35;;;22.40;99.90;;;;;;4955621;28;20235;-73
2023/06/29 16:25:23;;;;;;;21.52;8.35;;;22.10;99.90;;;;;;4956146;28;20250;-73
2023/06/29 16:27:50;;;;;;;17.00;8.40;;;21.90;99.90;;;;;;4956022;28;20204;-75
2023/06/29 16:30:16;;;;;;;14.93;7.50;;;21.70;99.90;;;;;;4956294;28;20211;-75
2023/06/29 16:32:43;;;;;;;11.60;6.90;;;21.60;99.90;;;;;;4956099;28;20218;-74
2023/06/29 16:35:10;;;;;;;14.15;7.47;;;21.60;99.90;;;;;;4956052;28;20675;-76
2023/06/29 16:37:37;;;;;;;15.57;8.27;;;21.40;99.90;;;;;;4956167;28;20218;-75
